sensor_id;sensor_type;location;lat;lon;timestamp;pressure;altitude;pressure_sealevel;temperature;humidity
48964;BME280;34776;48.180;16.420;2024-03-06T00:01:54;99809.91;;;8.55;70.01
48964;BME280;34776;48.180;16.420;2024-03-06T00:04:20;99815.31;;;8.52;69.98
48964;BME280;34776;48.180;16.420;2024-03-06T00:06:45;99813.63;;;8.51;70.06
48964;BME280;34776;48.180;16.420;2024-03-06T00:09:11;99820.75;;;8.49;70.15
48964;BME280;34776;48.180;16.420;2024-03-06T00:11:37;99818.16;;;8.47;70.22
48964;BME280;34776;48.180;16.420;2024-03-06T00:14:02;99812.03;;;8.47;70.43
48964;BME280;34776;48.180;16.420;2024-03-06T00:16:28;99824.41;;;8.46;70.54
48964;BME280;34776;48.180;16.420;2024-03-06T00:18:53;99819.16;;;8.45;70.43
48964;BME280;34776;48.180;16.420;2024-03-06T00:21:20;99818.44;;;8.41;70.64
48964;BME280;34776;48.180;16.420;2024-03-06T00:23:45;99824.63;;;8.40;70.97
48964;BME280;34776;48.180;16.420;2024-03-06T00:26:13;99816.75;;;8.39;70.87
48964;BME280;34776;48.180;16.420;2024-03-06T00:28:39;99820.25;;;8.39;71.09
48964;BME280;34776;48.180;16.420;2024-03-06T00:31:08;99819.41;;;8.39;71.51
48964;BME280;34776;48.180;16.420;2024-03-06T00:33:35;99828.16;;;8.41;71.43
48964;BME280;34776;48.180;16.420;2024-03-06T00:36:00;99826.31;;;8.43;71.39
48964;BME280;34776;48.180;16.420;2024-03-06T00:38:26;99828.81;;;8.46;71.38
48964;BME280;34776;48.180;16.420;2024-03-06T00:40:55;99826.31;;;8.43;71.37
48964;BME280;34776;48.180;16.420;2024-03-06T00:43:22;99831.63;;;8.43;71.31
48964;BME280;34776;48.180;16.420;2024-03-06T00:45:49;99831.69;;;8.40;71.51
48964;BME280;34776;48.180;16.420;2024-03-06T00:48:15;99831.84;;;8.37;71.87
48964;BME280;34776;48.180;16.420;2024-03-06T00:50:41;99828.25;;;8.38;72.20
48964;BME280;34776;48.180;16.420;2024-03-06T00:53:06;99826.53;;;8.37;72.12
48964;BME280;34776;48.180;16.420;2024-03-06T00:55:32;99828.34;;;8.36;72.02
48964;BME280;34776;48.180;16.420;2024-03-06T00:58:00;99833.69;;;8.34;72.32
48964;BME280;34776;48.180;16.420;2024-03-06T01:00:29;99824.94;;;8.32;72.29
48964;BME280;34776;48.180;16.420;2024-03-06T01:02:55;99824.94;;;8.32;72.27
48964;BME280;34776;48.180;16.420;2024-03-06T01:05:20;99826.75;;;8.32;72.40
48964;BME280;34776;48.180;16.420;2024-03-06T01:07:46;99829.44;;;8.30;72.54
48964;BME280;34776;48.180;16.420;2024-03-06T01:10:12;99831.25;;;8.30;72.64
48964;BME280;34776;48.180;16.420;2024-03-06T01:12:41;99828.69;;;8.27;72.94
48964;BME280;34776;48.180;16.420;2024-03-06T01:15:09;99829.59;;;8.27;72.66
48964;BME280;34776;48.180;16.420;2024-03-06T01:17:35;99826.94;;;8.27;72.84
48964;BME280;34776;48.180;16.420;2024-03-06T01:20:01;99822.50;;;8.28;72.69
48964;BME280;34776;48.180;16.420;2024-03-06T01:22:28;99828.78;;;8.25;72.73
48964;BME280;34776;48.180;16.420;2024-03-06T01:24:54;99827.06;;;8.24;72.76
48964;BME280;34776;48.180;16.420;2024-03-06T01:27:19;99829.69;;;8.24;72.68
48964;BME280;34776;48.180;16.420;2024-03-06T01:29:45;99837.78;;;8.21;72.83
48964;BME280;34776;48.180;16.420;2024-03-06T01:32:11;99834.34;;;8.19;72.79
48964;BME280;34776;48.180;16.420;2024-03-06T01:34:38;99840.53;;;8.18;72.82
48964;BME280;34776;48.180;16.420;2024-03-06T01:37:03;99841.47;;;8.17;72.76
48964;BME280;34776;48.180;16.420;2024-03-06T01:39:28;99845.03;;;8.16;72.88
48964;BME280;34776;48.180;16.420;2024-03-06T01:41:54;99845.97;;;8.15;72.89
48964;BME280;34776;48.180;16.420;2024-03-06T01:44:19;99846.06;;;8.12;73.22
48964;BME280;34776;48.180;16.420;2024-03-06T01:46:45;99840.78;;;8.12;73.01
48964;BME280;34776;48.180;16.420;2024-03-06T01:49:12;99840.78;;;8.12;72.89
48964;BME280;34776;48.180;16.420;2024-03-06T01:51:42;99854.16;;;8.09;73.05
48964;BME280;34776;48.180;16.420;2024-03-06T01:54:10;99843.56;;;8.09;72.97
48964;BME280;34776;48.180;16.420;2024-03-06T01:56:38;99850.72;;;8.07;73.07
48964;BME280;34776;48.180;16.420;2024-03-06T01:59:06;99854.41;;;8.03;73.24
48964;BME280;34776;48.180;16.420;2024-03-06T02:01:32;99852.81;;;7.99;73.43
48964;BME280;34776;48.180;16.420;2024-03-06T02:03:59;99858.09;;;7.99;73.33
48964;BME280;34776;48.180;16.420;2024-03-06T02:06:25;99861.53;;;8.01;73.34
48964;BME280;34776;48.180;16.420;2024-03-06T02:08:52;99859.78;;;8.00;73.37
48964;BME280;34776;48.180;16.420;2024-03-06T02:11:18;99858.19;;;7.96;73.27
48964;BME280;34776;48.180;16.420;2024-03-06T02:13:44;99857.28;;;7.97;73.44
48964;BME280;34776;48.180;16.420;2024-03-06T02:16:10;99861.78;;;7.95;73.50
48964;BME280;34776;48.180;16.420;2024-03-06T02:18:37;99865.34;;;7.93;73.46
48964;BME280;34776;48.180;16.420;2024-03-06T02:21:03;99867.13;;;7.93;73.53
48964;BME280;34776;48.180;16.420;2024-03-06T02:23:30;99870.75;;;7.90;73.70
48964;BME280;34776;48.180;16.420;2024-03-06T02:25:55;99862.16;;;7.85;73.99
48964;BME280;34776;48.180;16.420;2024-03-06T02:28:20;99864.97;;;7.81;73.92
48964;BME280;34776;48.180;16.420;2024-03-06T02:30:49;99859.84;;;7.76;74.08
48964;BME280;34776;48.180;16.420;2024-03-06T02:33:15;99860.91;;;7.72;74.38
48964;BME280;34776;48.180;16.420;2024-03-06T02:35:43;99868.88;;;7.70;74.39
48964;BME280;34776;48.180;16.420;2024-03-06T02:38:09;99862.88;;;7.67;74.36
48964;BME280;34776;48.180;16.420;2024-03-06T02:40:35;99861.22;;;7.64;74.31
48964;BME280;34776;48.180;16.420;2024-03-06T02:43:00;99871.84;;;7.63;74.65
48964;BME280;34776;48.180;16.420;2024-03-06T02:45:25;99876.38;;;7.59;74.43
48964;BME280;34776;48.180;16.420;2024-03-06T02:47:50;99869.53;;;7.53;74.70
48964;BME280;34776;48.180;16.420;2024-03-06T02:50:16;99861.72;;;7.50;74.83
48964;BME280;34776;48.180;16.420;2024-03-06T02:52:43;99864.47;;;7.47;74.86
48964;BME280;34776;48.180;16.420;2024-03-06T02:55:09;99871.69;;;7.44;75.10
48964;BME280;34776;48.180;16.420;2024-03-06T02:57:34;99874.38;;;7.42;75.09
48964;BME280;34776;48.180;16.420;2024-03-06T03:00:00;99881.50;;;7.40;75.06
48964;BME280;34776;48.180;16.420;2024-03-06T03:02:25;99886.78;;;7.40;74.95
48964;BME280;34776;48.180;16.420;2024-03-06T03:04:51;99877.25;;;7.36;75.12
48964;BME280;34776;48.180;16.420;2024-03-06T03:07:17;99883.47;;;7.35;75.16
48964;BME280;34776;48.180;16.420;2024-03-06T03:09:44;99886.19;;;7.32;75.17
48964;BME280;34776;48.180;16.420;2024-03-06T03:12:11;99887.22;;;7.28;75.51
48964;BME280;34776;48.180;16.420;2024-03-06T03:14:36;99884.63;;;7.26;75.41
48964;BME280;34776;48.180;16.420;2024-03-06T03:17:02;99893.50;;;7.25;75.17
48964;BME280;34776;48.180;16.420;2024-03-06T03:19:28;99898.78;;;7.25;75.40
48964;BME280;34776;48.180;16.420;2024-03-06T03:21:53;99888.44;;;7.19;75.10
48964;BME280;34776;48.180;16.420;2024-03-06T03:24:18;99893.75;;;7.18;75.13
48964;BME280;34776;48.180;16.420;2024-03-06T03:26:46;99896.63;;;7.11;75.43
48964;BME280;34776;48.180;16.420;2024-03-06T03:29:11;99886.28;;;7.05;75.74
48964;BME280;34776;48.180;16.420;2024-03-06T03:31:36;99894.28;;;7.04;75.68
48964;BME280;34776;48.180;16.420;2024-03-06T03:34:04;99891.69;;;7.02;75.61
48964;BME280;34776;48.180;16.420;2024-03-06T03:36:29;99893.50;;;7.00;75.56
48964;BME280;34776;48.180;16.420;2024-03-06T03:38:55;99893.63;;;6.97;75.65
48964;BME280;34776;48.180;16.420;2024-03-06T03:41:20;99896.31;;;6.96;75.54
48964;BME280;34776;48.180;16.420;2024-03-06T03:43:46;99895.47;;;6.95;75.45
48964;BME280;34776;48.180;16.420;2024-03-06T03:46:13;99902.66;;;6.90;75.55
48964;BME280;34776;48.180;16.420;2024-03-06T03:48:39;99903.66;;;6.87;75.70
48964;BME280;34776;48.180;16.420;2024-03-06T03:51:05;99902.78;;;6.87;75.50
48964;BME280;34776;48.180;16.420;2024-03-06T03:53:33;99908.16;;;6.84;75.44
48964;BME280;34776;48.180;16.420;2024-03-06T03:56:00;99907.31;;;6.83;75.50
48964;BME280;34776;48.180;16.420;2024-03-06T03:58:30;99903.91;;;6.80;75.39
48964;BME280;34776;48.180;16.420;2024-03-06T04:00:56;99906.53;;;6.80;75.24
48964;BME280;34776;48.180;16.420;2024-03-06T04:03:22;99907.53;;;6.77;75.24
48964;BME280;34776;48.180;16.420;2024-03-06T04:05:48;99901.38;;;6.77;75.17
48964;BME280;34776;48.180;16.420;2024-03-06T04:08:14;99905.00;;;6.74;75.16
48964;BME280;34776;48.180;16.420;2024-03-06T04:10:39;99911.19;;;6.73;75.13
48964;BME280;34776;48.180;16.420;2024-03-06T04:13:05;99912.03;;;6.74;74.94
48964;BME280;34776;48.180;16.420;2024-03-06T04:15:32;99908.69;;;6.68;75.18
48964;BME280;34776;48.180;16.420;2024-03-06T04:17:58;99907.84;;;6.68;75.03
48964;BME280;34776;48.180;16.420;2024-03-06T04:20:25;99910.63;;;6.63;75.19
48964;BME280;34776;48.180;16.420;2024-03-06T04:22:50;99914.19;;;6.62;75.17
48964;BME280;34776;48.180;16.420;2024-03-06T04:25:16;99916.91;;;6.59;75.30
48964;BME280;34776;48.180;16.420;2024-03-06T04:27:42;99914.38;;;6.56;75.52
48964;BME280;34776;48.180;16.420;2024-03-06T04:30:07;99917.97;;;6.55;75.61
48964;BME280;34776;48.180;16.420;2024-03-06T04:32:33;99916.09;;;6.57;75.50
48964;BME280;34776;48.180;16.420;2024-03-06T04:34:58;99919.66;;;6.56;75.45
48964;BME280;34776;48.180;16.420;2024-03-06T04:37:24;99918.91;;;6.53;75.42
48964;BME280;34776;48.180;16.420;2024-03-06T04:39:51;99916.34;;;6.51;75.22
48964;BME280;34776;48.180;16.420;2024-03-06T04:42:17;99914.63;;;6.48;75.42
48964;BME280;34776;48.180;16.420;2024-03-06T04:44:42;99919.06;;;6.48;75.23
48964;BME280;34776;48.180;16.420;2024-03-06T04:47:08;99921.69;;;6.48;75.35
48964;BME280;34776;48.180;16.420;2024-03-06T04:49:33;99926.13;;;6.47;75.24
48964;BME280;34776;48.180;16.420;2024-03-06T04:51:59;99927.84;;;6.48;75.12
48964;BME280;34776;48.180;16.420;2024-03-06T04:54:26;99924.38;;;6.46;75.06
48964;BME280;34776;48.180;16.420;2024-03-06T04:56:53;99929.72;;;6.45;75.25
48964;BME280;34776;48.180;16.420;2024-03-06T04:59:18;99925.47;;;6.41;75.28
48964;BME280;34776;48.180;16.420;2024-03-06T05:01:43;99933.41;;;6.39;75.48
48964;BME280;34776;48.180;16.420;2024-03-06T05:04:09;99935.13;;;6.40;75.38
48964;BME280;34776;48.180;16.420;2024-03-06T05:06:35;99930.75;;;6.41;75.28
48964;BME280;34776;48.180;16.420;2024-03-06T05:09:01;99932.56;;;6.39;75.29
48964;BME280;34776;48.180;16.420;2024-03-06T05:11:27;99936.09;;;6.38;75.34
48964;BME280;34776;48.180;16.420;2024-03-06T05:13:53;99939.59;;;6.38;75.29
48964;BME280;34776;48.180;16.420;2024-03-06T05:16:20;99935.25;;;6.37;75.21
48964;BME280;34776;48.180;16.420;2024-03-06T05:18:47;99942.34;;;6.35;75.26
48964;BME280;34776;48.180;16.420;2024-03-06T05:21:14;99940.53;;;6.37;75.20
48964;BME280;34776;48.180;16.420;2024-03-06T05:23:39;99933.47;;;6.38;75.17
48964;BME280;34776;48.180;16.420;2024-03-06T05:26:04;99937.84;;;6.39;75.01
48964;BME280;34776;48.180;16.420;2024-03-06T05:28:29;99937.72;;;6.42;74.83
48964;BME280;34776;48.180;16.420;2024-03-06T05:30:55;99939.47;;;6.43;74.67
48964;BME280;34776;48.180;16.420;2024-03-06T05:33:20;99946.41;;;6.45;74.46
48964;BME280;34776;48.180;16.420;2024-03-06T05:35:47;99942.84;;;6.46;74.35
48964;BME280;34776;48.180;16.420;2024-03-06T05:38:14;99941.09;;;6.47;74.40
48964;BME280;34776;48.180;16.420;2024-03-06T05:40:39;99938.38;;;6.48;74.26
48964;BME280;34776;48.180;16.420;2024-03-06T05:43:08;99940.97;;;6.50;74.06
48964;BME280;34776;48.180;16.420;2024-03-06T05:45:35;99938.25;;;6.53;73.87
48964;BME280;34776;48.180;16.420;2024-03-06T05:48:01;99938.25;;;6.53;73.76
48964;BME280;34776;48.180;16.420;2024-03-06T05:50:26;99941.66;;;6.57;73.71
48964;BME280;34776;48.180;16.420;2024-03-06T05:52:52;99944.25;;;6.58;73.41
48964;BME280;34776;48.180;16.420;2024-03-06T05:55:18;99947.69;;;6.60;73.28
48964;BME280;34776;48.180;16.420;2024-03-06T05:57:44;99949.41;;;6.61;73.01
48964;BME280;34776;48.180;16.420;2024-03-06T06:00:11;99948.50;;;6.62;72.98
48964;BME280;34776;48.180;16.420;2024-03-06T06:02:37;99952.78;;;6.66;72.81
48964;BME280;34776;48.180;16.420;2024-03-06T06:05:03;99949.16;;;6.69;72.67
48964;BME280;34776;48.180;16.420;2024-03-06T06:07:29;99957.84;;;6.73;72.51
48964;BME280;34776;48.180;16.420;2024-03-06T06:09:56;99962.97;;;6.77;72.28
48964;BME280;34776;48.180;16.420;2024-03-06T06:12:22;99959.28;;;6.83;72.05
48964;BME280;34776;48.180;16.420;2024-03-06T06:14:47;99962.63;;;6.88;71.94
48964;BME280;34776;48.180;16.420;2024-03-06T06:17:13;99970.38;;;6.93;71.67
48964;BME280;34776;48.180;16.420;2024-03-06T06:19:42;99964.84;;;7.00;71.50
48964;BME280;34776;48.180;16.420;2024-03-06T06:22:08;99964.59;;;7.08;71.20
48964;BME280;34776;48.180;16.420;2024-03-06T06:24:36;99968.78;;;7.14;70.96
48964;BME280;34776;48.180;16.420;2024-03-06T06:27:02;99977.44;;;7.19;70.89
48964;BME280;34776;48.180;16.420;2024-03-06T06:29:27;99977.44;;;7.19;70.45
48964;BME280;34776;48.180;16.420;2024-03-06T06:31:54;99978.13;;;7.24;70.43
48964;BME280;34776;48.180;16.420;2024-03-06T06:34:19;99985.84;;;7.30;70.22
48964;BME280;34776;48.180;16.420;2024-03-06T06:36:46;99987.56;;;7.31;69.96
48964;BME280;34776;48.180;16.420;2024-03-06T06:39:12;99986.56;;;7.35;69.73
48964;BME280;34776;48.180;16.420;2024-03-06T06:41:37;99985.34;;;7.44;69.71
48964;BME280;34776;48.180;16.420;2024-03-06T06:44:03;99986.91;;;7.49;69.66
48964;BME280;34776;48.180;16.420;2024-03-06T06:46:29;99991.09;;;7.55;69.40
48964;BME280;34776;48.180;16.420;2024-03-06T06:48:55;99991.44;;;7.71;69.18
48964;BME280;34776;48.180;16.420;2024-03-06T06:51:20;99995.47;;;7.81;68.66
48964;BME280;34776;48.180;16.420;2024-03-06T06:53:46;99981.13;;;7.87;68.27
48964;BME280;34776;48.180;16.420;2024-03-06T06:56:11;99994.94;;;7.95;68.09
48964;BME280;34776;48.180;16.420;2024-03-06T06:58:37;99985.09;;;7.99;67.85
48964;BME280;34776;48.180;16.420;2024-03-06T07:01:07;99990.25;;;8.02;67.37
48964;BME280;34776;48.180;16.420;2024-03-06T07:03:33;99988.44;;;8.04;67.07
48964;BME280;34776;48.180;16.420;2024-03-06T07:05:58;99994.53;;;8.06;67.17
48964;BME280;34776;48.180;16.420;2024-03-06T07:08:23;99990.84;;;8.10;67.01
48964;BME280;34776;48.180;16.420;2024-03-06T07:10:50;99990.38;;;8.22;66.81
48964;BME280;34776;48.180;16.420;2024-03-06T07:13:18;99985.78;;;8.27;66.75
48964;BME280;34776;48.180;16.420;2024-03-06T07:15:43;99990.94;;;8.30;66.49
48964;BME280;34776;48.180;16.420;2024-03-06T07:18:09;99996.38;;;8.27;66.19
48964;BME280;34776;48.180;16.420;2024-03-06T07:20:34;99994.25;;;8.36;66.11
48964;BME280;34776;48.180;16.420;2024-03-06T07:23:01;100000.22;;;8.42;65.97
48964;BME280;34776;48.180;16.420;2024-03-06T07:25:26;100001.16;;;8.40;65.77
48964;BME280;34776;48.180;16.420;2024-03-06T07:27:51;100005.44;;;8.44;65.76
48964;BME280;34776;48.180;16.420;2024-03-06T07:30:17;100013.03;;;8.53;65.57
48964;BME280;34776;48.180;16.420;2024-03-06T07:32:45;100004.16;;;8.54;65.35
48964;BME280;34776;48.180;16.420;2024-03-06T07:35:12;100014.16;;;8.69;65.21
48964;BME280;34776;48.180;16.420;2024-03-06T07:37:38;100008.97;;;8.88;64.73
48964;BME280;34776;48.180;16.420;2024-03-06T07:40:08;100013.06;;;8.96;64.24
48964;BME280;34776;48.180;16.420;2024-03-06T07:42:34;100012.75;;;9.03;64.11
48964;BME280;34776;48.180;16.420;2024-03-06T07:45:00;100012.38;;;9.12;63.84
48964;BME280;34776;48.180;16.420;2024-03-06T07:47:25;100012.84;;;9.22;63.64
48964;BME280;34776;48.180;16.420;2024-03-06T07:49:52;100017.63;;;9.34;63.35
48964;BME280;34776;48.180;16.420;2024-03-06T07:52:17;100024.91;;;9.50;63.03
48964;BME280;34776;48.180;16.420;2024-03-06T07:54:42;100019.19;;;9.80;62.82
48964;BME280;34776;48.180;16.420;2024-03-06T07:57:08;100014.75;;;11.79;61.66
48964;BME280;34776;48.180;16.420;2024-03-06T07:59:35;100010.56;;;14.91;57.12
48964;BME280;34776;48.180;16.420;2024-03-06T08:02:00;100010.44;;;17.91;51.51
48964;BME280;34776;48.180;16.420;2024-03-06T08:04:26;100006.50;;;19.59;46.99
48964;BME280;34776;48.180;16.420;2024-03-06T08:06:52;100020.59;;;19.84;43.84
48964;BME280;34776;48.180;16.420;2024-03-06T08:09:19;100012.31;;;20.37;40.80
48964;BME280;34776;48.180;16.420;2024-03-06T08:11:45;100017.97;;;20.34;40.17
48964;BME280;34776;48.180;16.420;2024-03-06T08:14:10;100014.63;;;20.52;39.75
48964;BME280;34776;48.180;16.420;2024-03-06T08:16:36;100016.88;;;21.16;38.08
48964;BME280;34776;48.180;16.420;2024-03-06T08:19:03;100020.88;;;21.22;36.65
48964;BME280;34776;48.180;16.420;2024-03-06T08:21:30;100015.19;;;21.35;36.24
48964;BME280;34776;48.180;16.420;2024-03-06T08:23:55;100020.16;;;21.10;36.06
48964;BME280;34776;48.180;16.420;2024-03-06T08:26:22;100018.78;;;20.56;37.05
48964;BME280;34776;48.180;16.420;2024-03-06T08:28:48;100026.31;;;20.62;36.27
48964;BME280;34776;48.180;16.420;2024-03-06T08:31:14;100020.69;;;20.84;35.96
48964;BME280;34776;48.180;16.420;2024-03-06T08:33:39;100032.69;;;21.11;34.99
48964;BME280;34776;48.180;16.420;2024-03-06T08:36:05;100026.69;;;21.27;34.79
48964;BME280;34776;48.180;16.420;2024-03-06T08:38:30;100019.06;;;21.42;35.11
48964;BME280;34776;48.180;16.420;2024-03-06T08:40:55;100023.28;;;21.54;33.96
48964;BME280;34776;48.180;16.420;2024-03-06T08:43:21;100023.88;;;21.48;34.22
48964;BME280;34776;48.180;16.420;2024-03-06T08:45:46;100028.31;;;21.96;33.95
48964;BME280;34776;48.180;16.420;2024-03-06T08:48:13;100019.28;;;22.80;32.48
48964;BME280;34776;48.180;16.420;2024-03-06T08:50:38;100028.84;;;23.20;32.22
48964;BME280;34776;48.180;16.420;2024-03-06T08:53:04;100016.56;;;22.80;31.88
48964;BME280;34776;48.180;16.420;2024-03-06T08:55:29;100021.47;;;22.02;32.56
48964;BME280;34776;48.180;16.420;2024-03-06T08:57:54;100021.91;;;22.44;32.35
48964;BME280;34776;48.180;16.420;2024-03-06T09:00:20;100019.94;;;21.99;32.40
48964;BME280;34776;48.180;16.420;2024-03-06T09:02:45;100025.34;;;19.71;34.49
48964;BME280;34776;48.180;16.420;2024-03-06T09:05:11;100021.97;;;19.57;35.56
48964;BME280;34776;48.180;16.420;2024-03-06T09:07:38;100020.88;;;19.27;35.74
48964;BME280;34776;48.180;16.420;2024-03-06T09:10:09;100014.78;;;20.19;34.47
48964;BME280;34776;48.180;16.420;2024-03-06T09:12:35;100023.13;;;20.87;33.55
48964;BME280;34776;48.180;16.420;2024-03-06T09:15:01;100018.81;;;20.25;33.53
48964;BME280;34776;48.180;16.420;2024-03-06T09:17:27;99999.38;;;20.81;33.21
48964;BME280;34776;48.180;16.420;2024-03-06T09:19:53;100006.78;;;21.38;31.99
48964;BME280;34776;48.180;16.420;2024-03-06T09:22:20;100008.91;;;21.24;32.63
48964;BME280;34776;48.180;16.420;2024-03-06T09:24:45;100005.78;;;21.39;32.38
48964;BME280;34776;48.180;16.420;2024-03-06T09:27:12;100005.31;;;20.65;32.50
48964;BME280;34776;48.180;16.420;2024-03-06T09:29:39;100002.06;;;20.31;33.33
48964;BME280;34776;48.180;16.420;2024-03-06T09:32:06;100003.56;;;20.55;33.45
48964;BME280;34776;48.180;16.420;2024-03-06T09:34:31;100002.41;;;20.98;33.29
48964;BME280;34776;48.180;16.420;2024-03-06T09:36:57;99998.50;;;20.71;33.06
48964;BME280;34776;48.180;16.420;2024-03-06T09:39:23;100006.44;;;20.63;32.78
48964;BME280;34776;48.180;16.420;2024-03-06T09:41:52;100002.72;;;19.83;33.10
48964;BME280;34776;48.180;16.420;2024-03-06T09:44:18;100011.38;;;19.23;34.44
48964;BME280;34776;48.180;16.420;2024-03-06T09:46:46;99998.22;;;18.54;36.21
48964;BME280;34776;48.180;16.420;2024-03-06T09:49:14;99999.09;;;18.10;37.25
48964;BME280;34776;48.180;16.420;2024-03-06T09:51:42;100000.38;;;17.23;37.52
48964;BME280;34776;48.180;16.420;2024-03-06T09:54:11;100011.47;;;16.21;38.82
48964;BME280;34776;48.180;16.420;2024-03-06T09:56:37;100014.75;;;15.75;39.35
48964;BME280;34776;48.180;16.420;2024-03-06T09:59:03;100013.41;;;15.42;40.14
48964;BME280;34776;48.180;16.420;2024-03-06T10:01:31;100008.34;;;15.25;40.27
48964;BME280;34776;48.180;16.420;2024-03-06T10:03:58;100008.81;;;15.04;40.44
48964;BME280;34776;48.180;16.420;2024-03-06T10:06:23;100001.81;;;14.61;40.75
48964;BME280;34776;48.180;16.420;2024-03-06T10:08:50;100005.72;;;14.41;41.21
48964;BME280;34776;48.180;16.420;2024-03-06T10:11:17;100000.22;;;14.30;41.74
48964;BME280;34776;48.180;16.420;2024-03-06T10:13:43;100008.41;;;14.27;41.51
48964;BME280;34776;48.180;16.420;2024-03-06T10:16:10;100004.63;;;14.02;42.05
48964;BME280;34776;48.180;16.420;2024-03-06T10:18:36;100002.91;;;14.01;41.81
48964;BME280;34776;48.180;16.420;2024-03-06T10:21:04;100000.25;;;14.01;42.31
48964;BME280;34776;48.180;16.420;2024-03-06T10:23:30;99999.31;;;13.88;42.00
48964;BME280;34776;48.180;16.420;2024-03-06T10:25:59;100009.59;;;13.80;42.50
48964;BME280;34776;48.180;16.420;2024-03-06T10:28:25;100007.84;;;13.65;42.64
48964;BME280;34776;48.180;16.420;2024-03-06T10:31:03;100005.78;;;13.84;42.16
48964;BME280;34776;48.180;16.420;2024-03-06T10:33:31;100007.09;;;13.91;42.54
48964;BME280;34776;48.180;16.420;2024-03-06T10:35:56;100003.13;;;13.98;42.34
48964;BME280;34776;48.180;16.420;2024-03-06T10:38:23;99995.88;;;13.86;42.29
48964;BME280;34776;48.180;16.420;2024-03-06T10:40:51;100002.63;;;13.92;42.34
48964;BME280;34776;48.180;16.420;2024-03-06T10:43:20;100002.53;;;14.08;42.32
48964;BME280;34776;48.180;16.420;2024-03-06T10:46:05;99997.47;;;14.03;41.11
48964;BME280;34776;48.180;16.420;2024-03-06T10:48:31;99995.66;;;14.04;42.06
48964;BME280;34776;48.180;16.420;2024-03-06T10:50:57;99993.66;;;13.93;42.13
48964;BME280;34776;48.180;16.420;2024-03-06T10:53:23;99997.84;;;13.83;42.19
48964;BME280;34776;48.180;16.420;2024-03-06T10:55:51;99991.66;;;13.82;42.26
48964;BME280;34776;48.180;16.420;2024-03-06T10:58:27;99998.16;;;13.92;41.85
48964;BME280;34776;48.180;16.420;2024-03-06T11:00:57;99998.16;;;13.92;42.14
48964;BME280;34776;48.180;16.420;2024-03-06T11:03:23;99994.81;;;14.03;42.00
48964;BME280;34776;48.180;16.420;2024-03-06T11:05:52;99994.91;;;14.16;41.89
48964;BME280;34776;48.180;16.420;2024-03-06T11:08:19;99985.72;;;14.20;41.88
48964;BME280;34776;48.180;16.420;2024-03-06T11:10:44;99986.88;;;14.16;41.96
48964;BME280;34776;48.180;16.420;2024-03-06T11:15:45;99988.78;;;13.99;41.78
48964;BME280;34776;48.180;16.420;2024-03-06T11:18:40;99982.22;;;13.91;41.70
48964;BME280;34776;48.180;16.420;2024-03-06T11:24:12;99985.56;;;13.94;41.47
48964;BME280;34776;48.180;16.420;2024-03-06T11:26:48;99983.34;;;13.87;41.35
48964;BME280;34776;48.180;16.420;2024-03-06T11:29:16;99973.91;;;13.81;42.19
48964;BME280;34776;48.180;16.420;2024-03-06T11:31:59;99977.25;;;13.99;41.43
48964;BME280;34776;48.180;16.420;2024-03-06T11:34:24;99969.22;;;14.13;41.71
48964;BME280;34776;48.180;16.420;2024-03-06T11:36:53;99972.06;;;14.25;41.60
48964;BME280;34776;48.180;16.420;2024-03-06T11:39:21;99973.66;;;14.41;41.49
48964;BME280;34776;48.180;16.420;2024-03-06T11:41:48;99967.69;;;14.51;40.80
48964;BME280;34776;48.180;16.420;2024-03-06T11:44:18;99968.50;;;14.38;40.82
48964;BME280;34776;48.180;16.420;2024-03-06T11:46:47;99971.66;;;14.31;41.42
48964;BME280;34776;48.180;16.420;2024-03-06T11:49:21;99956.69;;;14.28;41.26
48964;BME280;34776;48.180;16.420;2024-03-06T11:51:55;99956.53;;;14.44;41.26
48964;BME280;34776;48.180;16.420;2024-03-06T11:54:23;99952.78;;;14.61;40.82
48964;BME280;34776;48.180;16.420;2024-03-06T11:56:50;99959.66;;;14.65;41.24
48964;BME280;34776;48.180;16.420;2024-03-06T11:59:21;99966.34;;;14.72;40.87
48964;BME280;34776;48.180;16.420;2024-03-06T12:01:47;99951.69;;;14.78;40.85
48964;BME280;34776;48.180;16.420;2024-03-06T12:04:13;99955.88;;;14.82;40.50
48964;BME280;34776;48.180;16.420;2024-03-06T12:06:39;99954.09;;;14.95;40.63
48964;BME280;34776;48.180;16.420;2024-03-06T12:09:05;99961.59;;;15.03;40.23
48964;BME280;34776;48.180;16.420;2024-03-06T12:11:36;99957.41;;;14.99;40.44
48964;BME280;34776;48.180;16.420;2024-03-06T12:14:03;99960.94;;;14.87;40.48
48964;BME280;34776;48.180;16.420;2024-03-06T12:16:29;99956.44;;;14.87;40.69
48964;BME280;34776;48.180;16.420;2024-03-06T12:18:55;99945.00;;;14.98;40.33
48964;BME280;34776;48.180;16.420;2024-03-06T12:21:33;99947.34;;;14.90;39.91
48964;BME280;34776;48.180;16.420;2024-03-06T12:24:07;99945.72;;;14.87;40.47
48964;BME280;34776;48.180;16.420;2024-03-06T12:26:37;99950.03;;;15.02;40.50
48964;BME280;34776;48.180;16.420;2024-03-06T12:29:11;99947.03;;;15.07;39.78
48964;BME280;34776;48.180;16.420;2024-03-06T12:31:41;99948.88;;;15.19;40.30
48964;BME280;34776;48.180;16.420;2024-03-06T12:34:07;99948.69;;;15.22;39.73
48964;BME280;34776;48.180;16.420;2024-03-06T12:36:33;99939.53;;;14.87;40.27
48964;BME280;34776;48.180;16.420;2024-03-06T12:38:59;99944.59;;;14.50;40.36
48964;BME280;34776;48.180;16.420;2024-03-06T12:41:25;99935.59;;;14.51;40.58
48964;BME280;34776;48.180;16.420;2024-03-06T12:43:52;99943.25;;;14.57;40.37
48964;BME280;34776;48.180;16.420;2024-03-06T12:46:17;99938.88;;;14.56;40.46
48964;BME280;34776;48.180;16.420;2024-03-06T12:48:42;99937.66;;;14.74;40.76
48964;BME280;34776;48.180;16.420;2024-03-06T12:51:08;99944.66;;;14.90;40.61
48964;BME280;34776;48.180;16.420;2024-03-06T12:53:33;99930.47;;;15.02;40.58
48964;BME280;34776;48.180;16.420;2024-03-06T12:56:00;99946.97;;;15.21;40.22